createdAt,value
2017-08-15T00:01:27.048Z,100827.84
2017-08-15T00:03:54.578Z,100828.80
2017-08-15T00:06:21.784Z,100830.56
2017-08-15T00:08:49.121Z,100824.80
2017-08-15T00:11:16.754Z,100820.84
2017-08-15T00:13:44.037Z,100826.08
2017-08-15T00:16:11.221Z,100817.21
2017-08-15T00:18:38.388Z,100819.03
2017-08-15T00:21:05.568Z,100819.40
2017-08-15T00:23:32.937Z,100813.20
2017-08-15T00:26:00.124Z,100810.53
2017-08-15T00:28:27.545Z,100811.88
2017-08-15T00:30:54.714Z,100811.44
2017-08-15T00:33:21.881Z,100811.44
2017-08-15T00:35:49.300Z,100808.77
2017-08-15T00:38:16.765Z,100814.97
2017-08-15T00:40:43.955Z,100807.44
2017-08-15T00:43:11.683Z,100807.03
2017-08-15T00:45:39.201Z,100806.59
2017-08-15T00:48:06.589Z,100806.16
2017-08-15T00:50:34.236Z,100806.39
2017-08-15T00:53:01.502Z,100801.14
2017-08-15T00:55:28.949Z,100797.27
2017-08-15T00:57:56.116Z,100799.49
2017-08-15T01:00:23.574Z,100798.05
2017-08-15T01:02:51.150Z,100797.33
2017-08-15T01:05:18.336Z,100791.51
2017-08-15T01:07:45.634Z,100797.47
2017-08-15T01:10:13.092Z,100799.37
2017-08-15T01:12:40.545Z,100789.69
2017-08-15T01:15:07.732Z,100795.52
2017-08-15T01:17:35.151Z,100788.41
2017-08-15T01:20:02.798Z,100788.95
2017-08-15T01:22:30.074Z,100789.40
2017-08-15T01:24:57.256Z,100796.98
2017-08-15T01:27:24.676Z,100799.63
2017-08-15T01:29:51.868Z,100798.75
2017-08-15T01:32:19.282Z,100800.51
2017-08-15T01:34:46.626Z,100799.23
2017-08-15T01:37:13.815Z,100801.91
2017-08-15T01:39:41.045Z,100791.70
2017-08-15T01:42:08.581Z,100803.23
2017-08-15T01:44:35.952Z,100793.52
2017-08-15T01:47:03.592Z,100790.42
2017-08-15T01:49:30.932Z,100793.09
2017-08-15T01:51:58.327Z,100796.19
2017-08-15T01:54:25.498Z,100801.95
2017-08-15T01:56:52.666Z,100800.63
2017-08-15T01:59:20.082Z,100793.95
2017-08-15T02:01:47.267Z,100792.21
2017-08-15T02:04:14.438Z,100791.28
2017-08-15T02:06:41.605Z,100793.09
2017-08-15T02:09:09.101Z,100795.77
2017-08-15T02:11:36.273Z,100785.09
2017-08-15T02:14:03.600Z,100785.51
2017-08-15T02:16:31.053Z,100791.30
2017-08-15T02:18:58.447Z,100782.86
2017-08-15T02:21:25.738Z,100782.44
2017-08-15T02:23:53.120Z,100779.74
2017-08-15T02:26:20.583Z,100778.41
2017-08-15T02:28:48.348Z,100780.20
2017-08-15T02:31:15.525Z,100779.74
2017-08-15T02:33:42.734Z,100780.17
2017-08-15T02:36:09.905Z,100776.61
2017-08-15T02:38:37.437Z,100776.61
2017-08-15T02:41:04.621Z,100775.25
2017-08-15T02:43:32.048Z,100767.73
2017-08-15T02:45:59.313Z,100767.67
2017-08-15T02:48:26.661Z,100766.39
2017-08-15T02:50:54.074Z,100765.48
2017-08-15T02:53:21.246Z,100761.05
2017-08-15T02:55:48.528Z,100772.16
2017-08-15T02:58:16.178Z,100766.39
2017-08-15T03:00:43.756Z,100763.27
2017-08-15T03:03:10.929Z,100770.85
2017-08-15T03:05:38.097Z,100768.16
2017-08-15T03:08:05.574Z,100780.17
2017-08-15T03:10:33.140Z,100770.82
2017-08-15T03:13:00.313Z,100772.10
2017-08-15T03:15:27.752Z,100770.42
2017-08-15T03:17:55.027Z,100785.94
2017-08-15T03:20:22.484Z,100783.69
2017-08-15T03:22:50.004Z,100787.70
2017-08-15T03:25:17.177Z,100781.95
2017-08-15T03:27:44.350Z,100776.25
2017-08-15T03:30:11.883Z,100777.16
2017-08-15T03:32:39.157Z,100772.24
2017-08-15T03:35:06.791Z,100772.19
2017-08-15T03:37:33.966Z,100773.09
2017-08-15T03:40:01.133Z,100773.09
2017-08-15T03:42:28.686Z,100775.77
2017-08-15T03:44:55.889Z,100778.01
2017-08-15T03:47:23.406Z,100772.24
2017-08-15T03:49:50.745Z,100775.82
2017-08-15T03:52:18.266Z,100772.24
2017-08-15T03:54:45.433Z,100767.75
2017-08-15T03:57:12.804Z,100764.29
2017-08-15T03:59:39.992Z,100763.80
2017-08-15T04:02:07.611Z,100757.55
2017-08-15T04:04:34.800Z,100759.31
2017-08-15T04:07:02.098Z,100759.80
2017-08-15T04:09:29.792Z,100751.84
2017-08-15T04:11:56.960Z,100748.69
2017-08-15T04:14:24.599Z,100747.30
2017-08-15T04:16:51.843Z,100750.45
2017-08-15T04:19:19.013Z,100749.13
2017-08-15T04:21:46.186Z,100741.33
2017-08-15T04:24:13.371Z,100742.52
2017-08-15T04:26:40.757Z,100739.14
2017-08-15T04:29:07.941Z,100737.95
2017-08-15T04:31:35.448Z,100734.48
2017-08-15T04:34:03.201Z,100733.30
2017-08-15T04:36:30.591Z,100729.45
2017-08-15T04:38:58.041Z,100732.66
2017-08-15T04:41:25.214Z,100734.49
2017-08-15T04:43:52.836Z,100734.60
2017-08-15T04:46:20.421Z,100737.38
2017-08-15T04:48:47.869Z,100736.45
2017-08-15T04:51:15.330Z,100733.16
2017-08-15T04:53:42.515Z,100735.84
2017-08-15T04:56:09.933Z,100737.92
2017-08-15T04:58:37.399Z,100730.62
2017-08-15T05:01:04.848Z,100741.79
2017-08-15T05:03:32.037Z,100740.14
2017-08-15T05:05:59.206Z,100747.27
2017-08-15T05:08:26.374Z,100738.37
2017-08-15T05:10:53.757Z,100739.34
2017-08-15T05:13:20.926Z,100733.95
2017-08-15T05:15:48.101Z,100736.25
2017-08-15T05:18:15.828Z,100730.91
2017-08-15T05:20:43.278Z,100733.16
2017-08-15T05:23:10.450Z,100732.75
2017-08-15T05:25:37.892Z,100732.39
2017-08-15T05:28:05.083Z,100728.80
2017-08-15T05:30:32.447Z,100728.32
2017-08-15T05:32:59.630Z,100729.66
2017-08-15T05:35:27.101Z,100738.64
2017-08-15T05:37:54.557Z,100739.06
2017-08-15T05:40:22.346Z,100741.31
2017-08-15T05:42:49.532Z,100742.22
2017-08-15T05:45:17.243Z,100744.83
2017-08-15T05:47:44.493Z,100739.86
2017-08-15T05:50:12.034Z,100734.91
2017-08-15T05:52:39.306Z,100738.80
2017-08-15T05:55:06.824Z,100737.05
2017-08-15T05:57:34.213Z,100733.44
2017-08-15T06:00:01.677Z,100728.46
2017-08-15T06:02:28.864Z,100721.84
2017-08-15T06:04:56.393Z,100718.77
2017-08-15T06:07:23.936Z,100714.73
2017-08-15T06:09:51.191Z,100711.22
2017-08-15T06:12:18.846Z,100710.77
2017-08-15T06:14:46.421Z,100710.77
2017-08-15T06:17:13.593Z,100708.55
2017-08-15T06:19:41.024Z,100703.15
2017-08-15T06:22:08.476Z,100679.62
2017-08-15T06:24:35.649Z,100661.81
2017-08-15T06:27:02.831Z,100665.36
2017-08-15T06:29:30.000Z,100672.03
2017-08-15T06:31:57.174Z,100681.78
2017-08-15T06:34:24.345Z,100684.45
2017-08-15T06:36:51.596Z,100687.48
2017-08-15T06:39:18.788Z,100700.42
2017-08-15T06:41:45.979Z,100700.81
2017-08-15T06:44:13.498Z,100705.28
2017-08-15T06:46:40.670Z,100715.08
2017-08-15T06:49:07.857Z,100703.52
2017-08-15T06:51:35.029Z,100708.01
2017-08-15T06:54:02.212Z,100699.05
2017-08-15T06:56:29.397Z,100714.59
2017-08-15T06:58:56.652Z,100726.75
2017-08-15T07:01:23.822Z,100732.03
2017-08-15T07:03:51.008Z,100713.95
2017-08-15T07:06:18.484Z,100704.47
2017-08-15T07:08:46.052Z,100696.37
2017-08-15T07:11:13.325Z,100699.55
2017-08-15T07:13:40.960Z,100692.63
2017-08-15T07:16:08.551Z,100687.72
2017-08-15T07:18:35.736Z,100680.66
2017-08-15T07:21:02.923Z,100688.75
2017-08-15T07:23:30.507Z,100681.84
2017-08-15T07:25:57.760Z,100680.92
2017-08-15T07:28:25.216Z,100672.48
2017-08-15T07:30:52.680Z,100675.58
2017-08-15T07:33:20.209Z,100681.87
2017-08-15T07:35:47.401Z,100678.71
2017-08-15T07:38:14.573Z,100676.77
2017-08-15T07:40:42.203Z,100669.62
2017-08-15T07:43:09.658Z,100658.30
2017-08-15T07:45:37.167Z,100660.72
2017-08-15T07:48:04.434Z,100664.81
2017-08-15T07:50:32.031Z,100667.83
2017-08-15T07:52:59.472Z,100665.56
2017-08-15T07:55:26.662Z,100664.89
2017-08-15T07:57:54.090Z,100673.38
2017-08-15T08:00:21.544Z,100683.92
2017-08-15T08:02:49.066Z,100706.64
2017-08-15T08:05:16.254Z,100717.66
2017-08-15T08:07:43.438Z,100734.96
2017-08-15T08:10:10.631Z,100747.91
2017-08-15T08:12:37.908Z,100759.36
2017-08-15T08:15:05.369Z,100764.57
2017-08-15T08:17:32.748Z,100755.79
2017-08-15T08:19:59.918Z,100759.45
2017-08-15T08:22:27.125Z,100757.35
2017-08-15T08:24:54.573Z,100755.14
2017-08-15T08:27:21.745Z,100752.02
2017-08-15T08:29:49.260Z,100752.98
2017-08-15T08:32:16.433Z,100758.83
2017-08-15T08:34:43.606Z,100762.41
2017-08-15T08:37:11.136Z,100778.92
2017-08-15T08:39:38.403Z,100786.94
2017-08-15T08:42:05.922Z,100802.53
2017-08-15T08:44:33.439Z,100811.94
2017-08-15T08:47:00.636Z,100817.28
2017-08-15T08:49:27.824Z,100818.22
2017-08-15T08:51:55.019Z,100818.64
2017-08-15T08:54:22.686Z,100820.86
2017-08-15T08:56:49.988Z,100829.33
2017-08-15T08:59:17.645Z,100829.81
2017-08-15T09:01:45.218Z,100834.66
2017-08-15T09:04:12.856Z,100843.16
2017-08-15T09:06:40.125Z,100837.39
2017-08-15T09:09:07.317Z,100841.41
2017-08-15T09:11:34.738Z,100836.12
2017-08-15T09:14:02.189Z,100835.63
2017-08-15T09:16:29.648Z,100827.20
2017-08-15T09:18:56.860Z,100825.01
2017-08-15T09:21:24.257Z,100823.25
2017-08-15T09:23:51.426Z,100821.45
2017-08-15T09:26:18.629Z,100816.11
2017-08-15T09:28:51.454Z,100817.91
2017-08-15T09:31:18.681Z,100816.17
2017-08-15T09:33:46.462Z,100817.02
2017-08-15T09:36:13.676Z,100810.34
2017-08-15T09:38:40.850Z,100813.50
2017-08-15T09:41:08.060Z,100812.16
2017-08-15T09:43:35.563Z,100816.23
2017-08-15T09:46:02.822Z,100810.46
2017-08-15T09:48:30.276Z,100810.46
2017-08-15T09:50:57.865Z,100821.08
2017-08-15T09:53:25.041Z,100815.31
2017-08-15T09:55:52.227Z,100824.23
2017-08-15T09:58:25.007Z,100830.86
2017-08-15T10:00:52.203Z,100834.02
2017-08-15T10:03:19.628Z,100831.34
2017-08-15T10:05:46.975Z,100829.16
2017-08-15T10:08:14.240Z,100835.41
2017-08-15T10:10:41.757Z,100829.61
2017-08-15T10:13:09.022Z,100832.27
2017-08-15T10:15:36.194Z,100822.93
2017-08-15T10:18:03.450Z,100825.59
2017-08-15T10:20:30.620Z,100828.75
2017-08-15T10:22:58.117Z,100817.16
2017-08-15T10:25:25.637Z,100815.88
2017-08-15T10:27:52.820Z,100818.50
2017-08-15T10:30:20.322Z,100811.81
2017-08-15T10:32:47.893Z,100807.02
2017-08-15T10:35:15.080Z,100807.02
2017-08-15T10:37:42.257Z,100800.34
2017-08-15T10:40:09.957Z,100786.14
2017-08-15T10:42:37.611Z,100772.81
2017-08-15T10:45:04.800Z,100770.12
2017-08-15T10:47:31.969Z,100761.64
2017-08-15T10:49:59.166Z,100753.20
2017-08-15T10:52:26.679Z,100718.91
2017-08-15T10:54:53.869Z,100686.84
2017-08-15T10:57:21.231Z,100628.09
2017-08-15T10:59:48.683Z,100561.52
2017-08-15T11:02:16.202Z,100534.45
2017-08-15T11:04:43.373Z,100517.00
2017-08-15T11:07:10.546Z,100526.46
2017-08-15T11:09:37.728Z,100536.75
2017-08-15T11:12:05.049Z,100528.68
2017-08-15T11:14:32.690Z,100547.38
2017-08-15T11:17:00.279Z,100583.11
2017-08-15T11:19:27.524Z,100610.15
2017-08-15T11:21:55.066Z,100616.25
2017-08-15T11:24:22.244Z,100611.91
2017-08-15T11:26:49.418Z,100607.63
2017-08-15T11:29:16.596Z,100609.41
2017-08-15T11:31:44.408Z,100605.47
2017-08-15T11:34:11.931Z,100605.95
2017-08-15T11:36:39.314Z,100591.77
2017-08-15T11:39:06.501Z,100582.88
2017-08-15T11:41:39.494Z,100588.23
2017-08-15T11:44:06.918Z,100584.25
2017-08-15T11:46:34.575Z,100589.59
2017-08-15T11:49:01.831Z,100590.50
2017-08-15T11:51:29.286Z,100601.61
2017-08-15T11:53:56.922Z,100599.36
2017-08-15T11:56:24.510Z,100596.75
2017-08-15T11:58:52.109Z,100594.56
2017-08-15T12:01:19.732Z,100590.56
2017-08-15T12:03:47.367Z,100586.55
2017-08-15T12:06:14.953Z,100588.80
2017-08-15T12:08:42.413Z,100587.49
2017-08-15T12:11:09.745Z,100601.23
2017-08-15T12:13:37.324Z,100598.99
2017-08-15T12:16:05.005Z,100594.59
2017-08-15T12:18:32.546Z,100597.27
2017-08-15T12:21:00.312Z,100597.72
2017-08-15T12:23:27.766Z,100595.92
2017-08-15T12:25:55.401Z,100591.92
2017-08-15T12:28:22.990Z,100594.59
2017-08-15T12:30:50.586Z,100598.66
2017-08-15T12:33:18.079Z,100602.18
2017-08-15T12:35:45.672Z,100607.95
2017-08-15T12:38:13.314Z,100607.09
2017-08-15T12:40:40.889Z,100607.58
2017-08-15T12:43:08.450Z,100600.05
2017-08-15T12:45:35.917Z,100598.17
2017-08-15T12:48:03.461Z,100612.02
2017-08-15T12:50:30.718Z,100613.83
2017-08-15T12:52:58.175Z,100612.92
2017-08-15T12:55:25.687Z,100613.77
2017-08-15T12:57:53.205Z,100606.67
2017-08-15T13:00:20.550Z,100605.82
2017-08-15T13:02:48.190Z,100593.37
2017-08-15T13:05:15.769Z,100598.72
2017-08-15T13:07:43.226Z,100608.48
2017-08-15T13:10:10.794Z,100611.59
2017-08-15T13:12:38.336Z,100596.53
2017-08-15T13:15:05.907Z,100601.39
2017-08-15T13:17:33.571Z,100602.30
2017-08-15T13:20:00.821Z,100603.58
2017-08-15T13:22:28.457Z,100610.73
2017-08-15T13:24:56.040Z,100608.98
2017-08-15T13:27:23.691Z,100605.88
2017-08-15T13:29:51.265Z,100612.50
2017-08-15T13:32:18.722Z,100624.52
2017-08-15T13:34:46.370Z,100631.61
2017-08-15T13:37:13.942Z,100628.58
2017-08-15T13:39:41.455Z,100622.78
2017-08-15T13:42:08.973Z,100629.43
2017-08-15T13:44:36.489Z,100620.08
2017-08-15T13:47:03.958Z,100626.33
2017-08-15T13:49:31.535Z,100637.47
2017-08-15T13:51:58.995Z,100636.13
2017-08-15T13:54:26.510Z,100636.59
2017-08-15T13:56:53.952Z,100642.38
2017-08-15T13:59:21.221Z,100646.79
2017-08-15T14:01:48.822Z,100650.37
2017-08-15T14:04:16.106Z,100654.40
2017-08-15T14:06:43.403Z,100651.73
2017-08-15T14:09:11.192Z,100666.91
2017-08-15T14:11:38.957Z,100665.08
2017-08-15T14:14:06.722Z,100696.08
2017-08-15T14:16:34.369Z,100701.47
2017-08-15T14:19:01.943Z,100707.07
2017-08-15T14:21:29.454Z,100713.20
2017-08-15T14:23:56.922Z,100718.21
2017-08-15T14:26:24.364Z,100726.56
2017-08-15T14:28:51.535Z,100740.28
2017-08-15T14:31:19.228Z,100748.34
2017-08-15T14:33:46.681Z,100737.63
2017-08-15T14:36:14.136Z,100734.95
2017-08-15T14:38:41.324Z,100734.75
2017-08-15T14:41:08.776Z,100741.65
2017-08-15T14:43:35.999Z,100749.47
2017-08-15T14:46:03.203Z,100747.84
2017-08-15T14:48:30.385Z,100741.14
2017-08-15T14:50:57.573Z,100728.78
2017-08-15T14:53:24.773Z,100740.19
2017-08-15T14:55:52.759Z,100736.47
2017-08-15T14:58:19.946Z,100738.77
2017-08-15T15:00:47.178Z,100746.02
2017-08-15T15:03:14.385Z,100742.95
2017-08-15T15:05:41.975Z,100742.09
2017-08-15T15:08:09.246Z,100737.23
2017-08-15T15:10:36.449Z,100732.81
2017-08-15T15:13:03.845Z,100737.30
2017-08-15T15:15:31.491Z,100731.05
2017-08-15T15:17:58.694Z,100730.62
2017-08-15T15:20:25.881Z,100729.80
2017-08-15T15:22:53.852Z,100722.21
2017-08-15T15:25:21.128Z,100719.54
2017-08-15T15:27:48.332Z,100722.69
2017-08-15T15:30:15.746Z,100724.45
2017-08-15T15:32:43.203Z,100720.08
2017-08-15T15:35:10.833Z,100720.51
2017-08-15T15:37:38.422Z,100719.59
2017-08-15T15:40:05.631Z,100717.84
2017-08-15T15:42:33.262Z,100725.37
2017-08-15T15:45:00.785Z,100720.08
2017-08-15T15:47:28.244Z,100713.83
2017-08-15T15:49:55.703Z,100705.39
2017-08-15T15:52:22.958Z,100698.74
2017-08-15T15:54:50.126Z,100702.30
2017-08-15T15:57:17.289Z,100712.07
2017-08-15T15:59:44.782Z,100705.82
2017-08-15T16:02:11.976Z,100703.20
2017-08-15T16:04:39.156Z,100704.97
2017-08-15T16:07:06.317Z,100709.83
2017-08-15T16:09:33.490Z,100706.73
2017-08-15T16:12:01.589Z,100712.50
2017-08-15T16:14:28.754Z,100713.44
2017-08-15T16:16:56.282Z,100719.23
2017-08-15T16:19:23.853Z,100722.75
2017-08-15T16:21:51.109Z,100724.57
2017-08-15T16:24:18.684Z,100734.34
2017-08-15T16:26:45.868Z,100745.45
2017-08-15T16:29:13.271Z,100742.78
2017-08-15T16:31:40.630Z,100743.27
2017-08-15T16:34:07.802Z,100737.47
2017-08-15T16:36:35.347Z,100735.68
2017-08-15T16:39:02.815Z,100739.71
2017-08-15T16:41:30.001Z,100740.14
2017-08-15T16:43:57.202Z,100735.28
2017-08-15T16:46:24.460Z,100737.52
2017-08-15T16:49:01.746Z,100730.84
2017-08-15T16:51:30.124Z,100721.02
2017-08-15T16:53:57.344Z,100719.26
2017-08-15T16:56:24.559Z,100717.44
2017-08-15T16:58:52.187Z,100709.48
2017-08-15T17:01:19.368Z,100723.69
2017-08-15T17:03:46.866Z,100726.36
2017-08-15T17:06:14.207Z,100725.99
2017-08-15T17:08:42.503Z,100725.08
2017-08-15T17:11:09.745Z,100721.08
2017-08-15T17:13:37.697Z,100728.18
2017-08-15T17:16:06.838Z,100729.09
2017-08-15T17:18:34.598Z,100730.91
2017-08-15T17:21:02.489Z,100725.51
2017-08-15T17:23:29.681Z,100718.47
2017-08-15T17:25:57.366Z,100721.56
2017-08-15T17:28:25.169Z,100722.05
2017-08-15T17:30:52.561Z,100720.23
2017-08-15T17:33:19.729Z,100713.88
2017-08-15T17:35:46.916Z,100713.00
2017-08-15T17:38:14.267Z,100730.36
2017-08-15T17:40:41.460Z,100729.00
2017-08-15T17:43:09.100Z,100740.67
2017-08-15T17:45:36.273Z,100740.87
2017-08-15T17:48:03.491Z,100739.89
2017-08-15T17:50:30.657Z,100741.08
2017-08-15T17:52:58.707Z,100748.13
2017-08-15T17:55:26.158Z,100747.92
2017-08-15T17:57:53.612Z,100747.30
2017-08-15T18:00:21.273Z,100744.05
2017-08-15T18:02:48.845Z,100754.18
2017-08-15T18:05:16.281Z,100748.95
2017-08-15T18:07:43.748Z,100751.06
2017-08-15T18:10:11.266Z,100750.78
2017-08-15T18:12:38.467Z,100758.60
2017-08-15T18:15:05.653Z,100768.92
2017-08-15T18:17:32.970Z,100765.34
2017-08-15T18:20:00.134Z,100768.09
2017-08-15T18:22:27.297Z,100762.81
2017-08-15T18:24:54.825Z,100762.41
2017-08-15T18:27:21.988Z,100756.16
2017-08-15T18:29:49.168Z,100766.42
2017-08-15T18:32:16.489Z,100768.23
2017-08-15T18:34:44.119Z,100770.00
2017-08-15T18:37:11.393Z,100773.21
2017-08-15T18:39:39.056Z,100773.64
2017-08-15T18:42:06.310Z,100770.97
2017-08-15T18:44:33.481Z,100775.88
2017-08-15T18:47:00.916Z,100780.34
2017-08-15T18:49:28.577Z,100782.13
2017-08-15T18:51:55.828Z,100780.40
2017-08-15T18:54:23.336Z,100787.08
2017-08-15T18:56:50.505Z,100787.08
2017-08-15T18:59:17.675Z,100795.48
2017-08-15T19:01:44.914Z,100803.16
2017-08-15T19:04:12.104Z,100808.44
2017-08-15T19:06:39.273Z,100811.54
2017-08-15T19:09:06.692Z,100814.69
2017-08-15T19:11:34.266Z,100809.78
2017-08-15T19:14:01.718Z,100809.89
2017-08-15T19:16:28.890Z,100815.17
2017-08-15T19:18:56.513Z,100813.41
2017-08-15T19:21:23.785Z,100817.00
2017-08-15T19:23:50.969Z,100817.84
2017-08-15T19:26:18.493Z,100823.19
2017-08-15T19:28:46.058Z,100824.09
2017-08-15T19:31:13.234Z,100821.85
2017-08-15T19:33:40.453Z,100825.01
2017-08-15T19:36:07.633Z,100830.80
2017-08-15T19:38:35.080Z,100828.11
2017-08-15T19:41:02.267Z,100836.60
2017-08-15T19:43:29.666Z,100839.70
2017-08-15T19:45:57.124Z,100841.48
2017-08-15T19:48:24.512Z,100845.04
2017-08-15T19:50:51.727Z,100848.62
2017-08-15T19:53:19.188Z,100853.50
2017-08-15T19:55:46.368Z,100856.17
2017-08-15T19:58:14.109Z,100863.31
2017-08-15T20:00:41.613Z,100866.86
2017-08-15T20:03:09.130Z,100869.98
2017-08-15T20:05:36.294Z,100869.53
2017-08-15T20:08:03.462Z,100864.19
2017-08-15T20:10:30.633Z,100865.07
2017-08-15T20:12:58.130Z,100868.66
2017-08-15T20:15:25.380Z,100870.86
2017-08-15T20:17:52.841Z,100874.44
2017-08-15T20:20:20.404Z,100884.22
2017-08-15T20:22:47.945Z,100884.70
2017-08-15T20:25:15.523Z,100883.79
2017-08-15T20:27:42.972Z,100886.89
2017-08-15T20:30:10.156Z,100890.47
2017-08-15T20:32:37.329Z,100895.38
2017-08-15T20:35:04.505Z,100902.03
2017-08-15T20:37:31.688Z,100904.25
2017-08-15T20:39:59.032Z,100903.39
2017-08-15T20:42:26.489Z,100898.48
2017-08-15T20:44:53.654Z,100894.95
2017-08-15T20:47:21.172Z,100904.25
2017-08-15T20:49:48.665Z,100901.63
2017-08-15T20:52:16.207Z,100910.98
2017-08-15T20:54:43.466Z,100916.38
2017-08-15T20:57:10.655Z,100911.46
2017-08-15T20:59:37.833Z,100922.09
2017-08-15T21:02:05.404Z,100926.58
2017-08-15T21:04:33.169Z,100925.73
2017-08-15T21:07:00.334Z,100923.05
2017-08-15T21:09:27.524Z,100922.58
2017-08-15T21:11:55.053Z,100923.97
2017-08-15T21:14:22.225Z,100919.05
2017-08-15T21:16:49.413Z,100920.25
2017-08-15T21:19:16.592Z,100915.48
2017-08-15T21:21:43.960Z,100926.83
2017-08-15T21:24:11.142Z,100924.77
2017-08-15T21:26:38.568Z,100928.09
2017-08-15T21:29:06.221Z,100930.01
2017-08-15T21:31:33.480Z,100942.80
2017-08-15T21:34:00.937Z,100952.78
2017-08-15T21:36:28.397Z,100951.42
2017-08-15T21:38:55.565Z,100959.29
2017-08-15T21:41:22.772Z,100964.82
2017-08-15T21:43:49.941Z,100963.99
2017-08-15T21:46:17.119Z,100967.62
2017-08-15T21:48:44.663Z,100965.89
2017-08-15T21:51:11.901Z,100957.88
2017-08-15T21:53:39.422Z,100971.28
2017-08-15T21:56:06.625Z,100981.12
2017-08-15T21:58:34.032Z,100990.01
2017-08-15T22:01:06.690Z,100996.69
2017-08-15T22:03:34.220Z,100997.17
2017-08-15T22:06:02.061Z,100989.64
2017-08-15T22:08:29.339Z,100991.88
2017-08-15T22:10:56.846Z,101002.08
2017-08-15T22:13:24.021Z,100998.98
2017-08-15T22:15:51.200Z,101005.23
2017-08-15T22:18:18.388Z,101003.47
2017-08-15T22:20:45.702Z,100997.22
2017-08-15T22:23:12.879Z,101011.97
2017-08-15T22:25:40.053Z,101010.15
2017-08-15T22:28:07.669Z,101009.72
2017-08-15T22:30:34.986Z,101014.64
2017-08-15T22:33:02.179Z,101027.09
2017-08-15T22:35:29.697Z,101023.98
2017-08-15T22:37:56.879Z,101027.56
2017-08-15T22:40:24.282Z,101026.23
2017-08-15T22:42:51.461Z,101033.78
2017-08-15T22:45:18.629Z,101026.25
2017-08-15T22:47:46.198Z,101036.45
2017-08-15T22:50:13.649Z,101037.36
2017-08-15T22:52:40.828Z,101036.91
2017-08-15T22:55:08.001Z,101038.25
2017-08-15T22:57:35.508Z,101040.92
2017-08-15T23:00:02.688Z,101043.13
2017-08-15T23:02:29.856Z,101046.28
2017-08-15T23:04:57.036Z,101052.05
2017-08-15T23:07:24.245Z,101052.96
2017-08-15T23:09:51.428Z,101046.34
2017-08-15T23:12:19.406Z,101053.87
2017-08-15T23:14:46.588Z,101062.31
2017-08-15T23:17:13.757Z,101048.10
2017-08-15T23:19:40.987Z,101064.50
2017-08-15T23:22:08.507Z,101060.06
2017-08-15T23:24:36.000Z,101053.87
2017-08-15T23:27:03.165Z,101064.98
2017-08-15T23:29:30.504Z,101058.73
2017-08-15T23:31:57.678Z,101062.31
2017-08-15T23:34:25.122Z,101063.64
2017-08-15T23:36:52.762Z,101065.03
2017-08-15T23:39:20.340Z,101066.31
2017-08-15T23:41:47.846Z,101079.19
2017-08-15T23:44:15.018Z,101076.98
2017-08-15T23:46:42.195Z,101084.52
2017-08-15T23:49:09.365Z,101085.86
2017-08-15T23:51:36.701Z,101078.31
2017-08-15T23:54:04.160Z,101073.84
2017-08-15T23:56:31.334Z,101084.53
2017-08-15T23:58:58.757Z,101081.86
